Terminal Aerodrome Forecast
Issued by NWS Topeka, KS

Home | Current Version | Previous Version | Text Only | Print | Product List | Glossary On
Versions: 1 2 3 4 5 6 7 8 9 10 11 12 13 14 15
000
FTUS43 KTOP 260740 AAA
TAFTOP
TAF AMD
KTOP 260740Z 2608/2706 32005KT P6SM -SHRA VCTS FEW007 BKN050CB
      TEMPO 2608/2611 5SM -RA BKN006
     FM261100 34005KT 6SM BR VCSH BKN008
     FM261700 34008KT P6SM FEW015 BKN025=

USA.gov is the U.S. government's official web portal to all federal, state and local government web resources and services.